Time;durP1;ratioP1;P1;durP2;ratioP2;P2;SDS_P1;SDS_P2;PMS_P1;PMS_P2;Temp;Humidity;BMP_temperature;BMP_pressure;BME280_temperature;BME280_humidity;BME280_pressure;Samples;Min_cycle;Max_cycle;Signal;HPM_P1;HPM_P2
2022/10/07 00:01:48;;;;;;;14.32;3.00;;;12.60;99.90;;;;;;4898670;29;20200;-71
2022/10/07 00:04:14;;;;;;;13.15;3.05;;;12.60;99.90;;;;;;4895694;29;20992;-71
2022/10/07 00:06:40;;;;;;;15.43;2.88;;;12.60;99.90;;;;;;4892577;29;20184;-70
2022/10/07 00:09:05;;;;;;;21.73;3.60;;;12.60;99.90;;;;;;4894287;29;20660;-71
2022/10/07 00:11:31;;;;;;;14.70;2.95;;;12.50;99.90;;;;;;4896802;29;20185;-71
2022/10/07 00:14:00;;;;;;;19.35;3.15;;;12.50;99.90;;;;;;4898648;29;20211;-72
2022/10/07 00:16:29;;;;;;;19.23;3.10;;;12.50;99.90;;;;;;4898973;29;20208;-71
2022/10/07 00:18:57;;;;;;;18.30;3.20;;;12.50;99.90;;;;;;4895149;29;20223;-66
2022/10/07 00:21:24;;;;;;;20.83;2.67;;;12.40;99.90;;;;;;4897590;29;20208;-72
2022/10/07 00:23:50;;;;;;;16.80;2.47;;;12.40;99.90;;;;;;4899772;29;20195;-71
2022/10/07 00:26:20;;;;;;;18.42;2.85;;;12.40;99.90;;;;;;4899294;29;20173;-71
2022/10/07 00:28:47;;;;;;;16.33;2.85;;;12.40;99.90;;;;;;4895069;29;20192;-71
2022/10/07 00:31:16;;;;;;;15.55;3.55;;;12.40;99.90;;;;;;4895823;29;20251;-71
2022/10/07 00:33:43;;;;;;;16.73;2.90;;;12.40;99.90;;;;;;4897007;29;20184;-71
2022/10/07 00:36:11;;;;;;;28.50;3.25;;;12.30;99.90;;;;;;4896839;29;20180;-71
2022/10/07 00:38:38;;;;;;;28.63;3.75;;;12.30;99.90;;;;;;4896467;29;20244;-66
2022/10/07 00:41:05;;;;;;;21.83;3.33;;;12.30;99.90;;;;;;4893587;29;20215;-72
2022/10/07 00:43:31;;;;;;;21.00;3.38;;;12.30;99.90;;;;;;4897965;29;20243;-71
2022/10/07 00:46:15;;;;;;;15.77;3.25;;;12.30;99.90;;;;;;4896184;29;20188;-64
2022/10/07 00:48:43;;;;;;;18.85;2.95;;;12.30;99.90;;;;;;4896158;29;20176;-71
2022/10/07 00:51:09;;;;;;;18.45;3.47;;;12.20;99.90;;;;;;4895094;29;20255;-71
2022/10/07 00:53:39;;;;;;;24.08;3.00;;;12.20;99.90;;;;;;4900912;29;20189;-71
2022/10/07 00:56:07;;;;;;;20.35;3.30;;;12.20;99.90;;;;;;4903269;29;20184;-71
2022/10/07 00:58:36;;;;;;;20.15;3.47;;;12.20;99.90;;;;;;4900723;29;20196;-71
2022/10/07 01:01:05;;;;;;;25.02;3.33;;;12.20;99.90;;;;;;4901223;29;20657;-72
2022/10/07 01:03:35;;;;;;;18.00;3.05;;;12.20;99.90;;;;;;4901641;29;20200;-72
2022/10/07 01:06:05;;;;;;;23.65;2.90;;;12.20;99.90;;;;;;4901460;29;20184;-71
2022/10/07 01:08:32;;;;;;;21.08;3.35;;;12.20;99.90;;;;;;4900785;29;20185;-71
2022/10/07 01:11:12;;;;;;;26.73;3.80;;;12.20;99.90;;;;;;4899140;29;20184;-71
2022/10/07 01:14:13;;;;;;;24.90;3.45;;;12.20;99.90;;;;;;4900497;29;20193;-71
2022/10/07 01:17:18;;;;;;;26.30;3.70;;;12.20;99.90;;;;;;4899629;29;20216;-71
2022/10/07 01:20:17;;;;;;;23.45;3.30;;;12.20;99.90;;;;;;4895338;29;20227;-71
2022/10/07 01:23:28;;;;;;;18.73;2.90;;;12.20;99.90;;;;;;4898187;29;20649;-71
2022/10/07 01:26:21;;;;;;;21.73;3.35;;;12.20;99.90;;;;;;4888211;29;20199;-71
2022/10/07 01:29:12;;;;;;;25.30;3.63;;;12.10;99.90;;;;;;4900388;29;20653;-72
2022/10/07 01:31:45;;;;;;;19.65;3.35;;;12.20;99.90;;;;;;4898244;29;20188;-71
2022/10/07 01:34:12;;;;;;;28.73;3.88;;;12.20;99.90;;;;;;4895504;29;20216;-73
2022/10/07 01:36:40;;;;;;;22.02;3.63;;;12.20;99.90;;;;;;4900151;29;20197;-72
2022/10/07 01:39:12;;;;;;;21.45;3.40;;;12.20;99.90;;;;;;4901184;29;20208;-69
2022/10/07 01:41:40;;;;;;;22.30;3.70;;;12.20;99.90;;;;;;4883568;29;20523;-70
2022/10/07 01:44:09;;;;;;;23.02;3.33;;;12.20;99.90;;;;;;4898935;29;20224;-72
2022/10/07 01:46:36;;;;;;;18.33;2.97;;;12.20;99.90;;;;;;4899388;29;20185;-72
2022/10/07 01:49:04;;;;;;;17.33;3.25;;;12.20;99.90;;;;;;4900003;29;20594;-72
2022/10/07 01:51:36;;;;;;;16.50;3.05;;;12.20;99.90;;;;;;4899301;29;20212;-72
2022/10/07 01:54:23;;;;;;;21.48;3.60;;;12.20;99.90;;;;;;4896035;29;20220;-70
2022/10/07 01:57:06;;;;;;;22.65;3.28;;;12.20;99.90;;;;;;4899971;29;20240;-71
2022/10/07 02:00:09;;;;;;;23.98;3.40;;;12.20;99.90;;;;;;4878897;29;20228;-71
2022/10/07 02:03:05;;;;;;;26.38;3.70;;;12.20;99.90;;;;;;4912984;29;20729;-67
2022/10/07 02:05:40;;;;;;;23.40;3.85;;;12.20;99.90;;;;;;4897659;29;20228;-71
2022/10/07 02:08:21;;;;;;;20.17;3.45;;;12.20;99.90;;;;;;4883993;29;20180;-70
2022/10/07 02:11:00;;;;;;;26.45;3.33;;;12.20;99.90;;;;;;4899306;29;20177;-70
2022/10/07 02:13:42;;;;;;;27.25;3.70;;;12.10;99.90;;;;;;4896337;29;20539;-69
2022/10/07 02:16:25;;;;;;;25.15;3.75;;;12.10;99.90;;;;;;4898027;29;20192;-69
2022/10/07 02:18:53;;;;;;;16.55;3.10;;;12.10;99.90;;;;;;4898916;29;20212;-70
2022/10/07 02:21:24;;;;;;;21.23;3.15;;;12.00;99.90;;;;;;4898900;29;20192;-69
2022/10/07 02:23:53;;;;;;;29.40;3.80;;;12.10;99.90;;;;;;4895743;29;20184;-70
2022/10/07 02:26:21;;;;;;;22.13;3.75;;;12.00;99.90;;;;;;4893989;29;20185;-70
2022/10/07 02:28:51;;;;;;;18.33;3.20;;;12.00;99.90;;;;;;4899020;29;20192;-71
2022/10/07 02:31:22;;;;;;;23.95;3.65;;;12.00;99.90;;;;;;4899265;29;20185;-71
2022/10/07 02:33:52;;;;;;;25.90;3.70;;;12.00;99.90;;;;;;4898792;29;20267;-71
2022/10/07 02:36:31;;;;;;;21.92;3.47;;;12.00;99.90;;;;;;4879902;29;20189;-71
2022/10/07 02:39:00;;;;;;;18.95;3.55;;;12.00;99.90;;;;;;4866126;29;20209;-72
2022/10/07 02:41:44;;;;;;;22.75;3.78;;;12.00;99.90;;;;;;4898785;29;20542;-71
2022/10/07 02:44:34;;;;;;;18.50;3.40;;;11.90;99.90;;;;;;4896962;29;20245;-71
2022/10/07 02:47:04;;;;;;;27.55;3.65;;;11.90;99.90;;;;;;4908658;29;20188;-72
2022/10/07 02:49:31;;;;;;;23.20;3.65;;;12.00;99.90;;;;;;4898333;29;20721;-76
2022/10/07 02:52:05;;;;;;;24.67;3.65;;;11.90;99.90;;;;;;4898529;29;20575;-73
2022/10/07 02:54:38;;;;;;;20.23;3.45;;;12.00;99.90;;;;;;4897069;29;20184;-67
2022/10/07 02:57:05;;;;;;;27.58;3.72;;;11.90;99.90;;;;;;4893133;29;20181;-65
2022/10/07 02:59:34;;;;;;;25.63;3.60;;;11.90;99.90;;;;;;4891629;29;20343;-72
2022/10/07 03:02:04;;;;;;;22.15;3.30;;;11.90;99.90;;;;;;4898843;29;20266;-73
2022/10/07 03:04:31;;;;;;;26.42;4.00;;;11.90;99.90;;;;;;4898257;29;20214;-72
2022/10/07 03:06:57;;;;;;;22.75;4.00;;;11.90;99.90;;;;;;4892338;29;20196;-74
2022/10/07 03:09:24;;;;;;;29.13;4.18;;;11.90;99.90;;;;;;4898490;29;20192;-73
2022/10/07 03:11:50;;;;;;;23.38;3.88;;;11.90;99.90;;;;;;4898421;29;20213;-72
2022/10/07 03:14:16;;;;;;;21.80;3.97;;;11.90;99.90;;;;;;4898413;29;20185;-72
2022/10/07 03:16:42;;;;;;;27.15;3.92;;;11.90;99.90;;;;;;4894890;29;20196;-73
2022/10/07 03:19:09;;;;;;;17.15;3.72;;;11.90;99.90;;;;;;4893055;29;20228;-66
2022/10/07 03:21:48;;;;;;;22.50;4.00;;;11.90;99.90;;;;;;4897982;29;20196;-72
2022/10/07 03:24:14;;;;;;;21.98;4.00;;;11.90;99.90;;;;;;4898047;29;20648;-73
2022/10/07 03:26:44;;;;;;;28.27;4.15;;;11.90;99.90;;;;;;4896210;29;20627;-72
2022/10/07 03:29:12;;;;;;;22.15;3.80;;;11.90;99.90;;;;;;4877550;29;20262;-73
2022/10/07 03:31:40;;;;;;;29.83;3.78;;;11.90;99.90;;;;;;4898331;29;20244;-73
2022/10/07 03:34:06;;;;;;;37.20;4.40;;;11.90;99.90;;;;;;4898859;29;20279;-72
2022/10/07 03:36:33;;;;;;;26.02;3.95;;;11.90;99.90;;;;;;4897789;29;20597;-73
2022/10/07 03:38:59;;;;;;;29.05;4.75;;;11.90;99.90;;;;;;4907987;29;20239;-72
2022/10/07 03:41:25;;;;;;;19.17;4.05;;;11.80;99.90;;;;;;4889307;29;20276;-73
2022/10/07 03:43:56;;;;;;;26.48;3.80;;;11.90;99.90;;;;;;4885716;29;20228;-73
2022/10/07 03:46:23;;;;;;;22.80;4.20;;;11.90;99.90;;;;;;4897259;29;20198;-72
2022/10/07 03:48:50;;;;;;;24.20;4.20;;;11.90;99.90;;;;;;4878565;29;20197;-72
2022/10/07 03:51:16;;;;;;;22.40;4.10;;;11.80;99.90;;;;;;4898934;29;20637;-71
2022/10/07 03:53:42;;;;;;;21.63;4.35;;;11.80;99.90;;;;;;4896548;29;20177;-72
2022/10/07 03:56:08;;;;;;;23.45;4.25;;;11.80;99.90;;;;;;4897306;29;20604;-73
2022/10/07 03:58:35;;;;;;;21.90;4.32;;;11.90;99.90;;;;;;4894972;29;20227;-72
2022/10/07 04:01:05;;;;;;;23.17;3.92;;;11.80;99.90;;;;;;4880062;29;20200;-72
2022/10/07 04:03:31;;;;;;;19.50;4.30;;;11.80;99.90;;;;;;4897501;29;20272;-72
2022/10/07 04:05:59;;;;;;;27.92;4.95;;;11.80;99.90;;;;;;4897136;29;20212;-72
2022/10/07 04:08:31;;;;;;;23.52;4.43;;;11.80;99.90;;;;;;4896307;29;20241;-72
2022/10/07 04:10:58;;;;;;;30.58;4.95;;;11.80;99.90;;;;;;4894257;29;20260;-72
2022/10/07 04:13:25;;;;;;;24.65;4.43;;;11.80;99.90;;;;;;4888678;29;20184;-72
2022/10/07 04:15:52;;;;;;;27.92;5.05;;;11.80;99.90;;;;;;4896808;29;20191;-69
2022/10/07 04:18:20;;;;;;;25.48;4.60;;;11.80;99.90;;;;;;4896617;29;20231;-72
2022/10/07 04:20:46;;;;;;;24.40;4.68;;;11.80;99.90;;;;;;4892988;29;20323;-72
2022/10/07 04:23:12;;;;;;;21.73;4.50;;;11.80;99.90;;;;;;4897894;29;20208;-71
2022/10/07 04:25:44;;;;;;;31.65;4.90;;;11.80;99.90;;;;;;4896744;29;20185;-72
2022/10/07 04:28:19;;;;;;;23.92;4.85;;;11.80;99.90;;;;;;4897121;29;20188;-67
2022/10/07 04:30:50;;;;;;;25.48;4.65;;;11.80;99.90;;;;;;4895369;29;20203;-71
2022/10/07 04:33:20;;;;;;;28.42;5.28;;;11.80;99.90;;;;;;4892601;29;20202;-72
2022/10/07 04:35:47;;;;;;;23.27;4.65;;;11.80;99.90;;;;;;4896523;29;20195;-72
2022/10/07 04:38:14;;;;;;;23.88;4.43;;;11.80;99.90;;;;;;4897077;29;20212;-72
2022/10/07 04:40:44;;;;;;;31.88;5.00;;;11.80;99.90;;;;;;4896627;29;20184;-72
2022/10/07 04:43:19;;;;;;;23.23;4.80;;;11.80;99.90;;;;;;4888852;29;20227;-70
2022/10/07 04:46:12;;;;;;;34.88;5.03;;;11.80;99.90;;;;;;4894789;29;20231;-72
2022/10/07 04:48:45;;;;;;;24.38;4.35;;;11.70;99.90;;;;;;4896588;29;20642;-72
2022/10/07 04:51:14;;;;;;;22.10;4.85;;;11.70;99.90;;;;;;4887486;29;20193;-72
2022/10/07 04:53:42;;;;;;;23.25;4.40;;;11.70;99.90;;;;;;4878531;29;20198;-71
2022/10/07 04:56:10;;;;;;;22.25;4.65;;;11.70;99.90;;;;;;4893049;29;20645;-66
2022/10/07 04:58:36;;;;;;;24.50;4.13;;;11.70;99.90;;;;;;4875767;29;20227;-72
2022/10/07 05:01:08;;;;;;;27.42;4.80;;;11.70;99.90;;;;;;4869297;29;20189;-72
2022/10/07 05:03:39;;;;;;;27.25;4.80;;;11.70;99.90;;;;;;4895693;29;20193;-71
2022/10/07 05:06:07;;;;;;;21.65;4.80;;;11.70;99.90;;;;;;4890284;29;20181;-72
2022/10/07 05:08:34;;;;;;;29.83;4.95;;;11.70;99.90;;;;;;4895237;29;20204;-75
2022/10/07 05:11:01;;;;;;;37.15;5.15;;;11.70;99.90;;;;;;4895665;29;20263;-74
2022/10/07 05:13:31;;;;;;;21.25;4.80;;;11.70;99.90;;;;;;4897214;29;20180;-73
2022/10/07 05:15:59;;;;;;;22.92;4.60;;;11.70;99.90;;;;;;4894669;29;20702;-68
2022/10/07 05:18:27;;;;;;;22.55;4.40;;;11.70;99.90;;;;;;4893525;29;20189;-70
2022/10/07 05:20:55;;;;;;;23.40;4.45;;;11.80;99.90;;;;;;4896222;29;20220;-66
2022/10/07 05:23:24;;;;;;;28.95;5.95;;;11.80;99.90;;;;;;4896662;29;20668;-69
2022/10/07 05:26:03;;;;;;;24.75;5.40;;;11.80;99.90;;;;;;4879053;29;20252;-65
2022/10/07 05:28:31;;;;;;;25.35;5.00;;;11.80;99.90;;;;;;4891633;29;20185;-67
2022/10/07 05:31:10;;;;;;;26.27;4.65;;;11.80;99.90;;;;;;4895951;29;20576;-63
2022/10/07 05:33:36;;;;;;;25.95;4.82;;;11.80;99.90;;;;;;4895468;29;20566;-63
2022/10/07 05:36:04;;;;;;;22.70;5.25;;;11.80;99.90;;;;;;4894666;29;20191;-67
2022/10/07 05:38:29;;;;;;;27.25;5.50;;;11.80;99.90;;;;;;4893910;29;20681;-65
2022/10/07 05:40:58;;;;;;;24.80;4.60;;;11.80;99.90;;;;;;4899542;29;20193;-70
2022/10/07 05:43:27;;;;;;;28.42;4.93;;;11.80;99.90;;;;;;4899380;29;20634;-68
2022/10/07 05:46:00;;;;;;;30.63;5.55;;;11.80;99.90;;;;;;4898966;29;20200;-68
2022/10/07 05:48:29;;;;;;;24.95;5.75;;;11.80;99.90;;;;;;4896718;29;20216;-67
2022/10/07 05:50:57;;;;;;;25.58;5.18;;;11.80;99.90;;;;;;4897883;29;20187;-65
2022/10/07 05:53:24;;;;;;;24.83;4.57;;;11.80;99.90;;;;;;4899292;29;20188;-65
2022/10/07 05:55:50;;;;;;;20.38;5.22;;;11.70;99.90;;;;;;4869438;29;20209;-61
2022/10/07 05:58:21;;;;;;;27.92;5.13;;;11.70;99.90;;;;;;4894220;29;20220;-63
2022/10/07 06:00:56;;;;;;;20.48;5.25;;;11.80;99.90;;;;;;4897984;29;20212;-63
2022/10/07 06:03:27;;;;;;;26.80;6.25;;;11.80;99.90;;;;;;4896819;29;20188;-64
2022/10/07 06:05:55;;;;;;;22.00;5.32;;;11.80;99.90;;;;;;4898074;29;20202;-62
2022/10/07 06:08:23;;;;;;;18.27;4.57;;;11.80;99.90;;;;;;4876479;29;20243;-64
2022/10/07 06:13:37;;;;;;;27.83;5.20;;;11.80;99.90;;;;;;4881757;29;20225;-63
2022/10/07 06:16:08;;;;;;;25.05;5.57;;;11.80;99.90;;;;;;4881983;29;20181;-64
2022/10/07 06:18:37;;;;;;;26.50;5.35;;;11.80;99.90;;;;;;4887883;29;20601;-64
2022/10/07 06:21:04;;;;;;;27.08;5.75;;;11.80;99.90;;;;;;4891609;29;20189;-64
2022/10/07 06:23:32;;;;;;;21.67;5.30;;;11.80;99.90;;;;;;4894189;29;20189;-62
2022/10/07 06:26:01;;;;;;;27.85;4.65;;;11.80;99.90;;;;;;4879923;29;20256;-64
2022/10/07 06:28:39;;;;;;;23.15;5.15;;;11.80;99.90;;;;;;4868073;29;20562;-63
2022/10/07 06:31:11;;;;;;;19.13;5.07;;;11.80;99.90;;;;;;4891366;29;20185;-63
2022/10/07 06:33:37;;;;;;;25.25;4.90;;;11.80;99.90;;;;;;4874837;29;20208;-64
2022/10/07 06:36:09;;;;;;;28.02;5.85;;;11.70;99.90;;;;;;4866857;29;20609;-67
2022/10/07 06:38:35;;;;;;;22.27;5.28;;;11.70;99.90;;;;;;4894651;29;20573;-64
2022/10/07 06:41:03;;;;;;;21.00;4.93;;;11.80;99.90;;;;;;4881743;29;20238;-67
2022/10/07 06:46:05;;;;;;;27.85;4.75;;;11.80;99.90;;;;;;5084606;27;1300875;-68
2022/10/07 06:48:33;;;;;;;26.95;5.03;;;11.80;99.90;;;;;;5117865;28;20176;-67
2022/10/07 06:51:03;;;;;;;20.45;5.15;;;11.80;99.90;;;;;;5101151;28;20587;-68
2022/10/07 06:53:31;;;;;;;17.63;4.75;;;11.90;99.90;;;;;;5127865;28;20549;-65
2022/10/07 06:56:03;;;;;;;28.73;5.32;;;11.90;99.90;;;;;;5111618;28;20192;-66
2022/10/07 06:58:32;;;;;;;17.88;4.60;;;11.90;99.90;;;;;;5110194;28;20178;-67
2022/10/07 07:00:58;;;;;;;31.23;6.25;;;11.90;99.90;;;;;;5127927;28;20169;-68
2022/10/07 07:03:25;;;;;;;23.67;5.45;;;11.90;99.90;;;;;;5127146;28;20603;-69
2022/10/07 07:05:53;;;;;;;18.98;5.25;;;12.00;99.90;;;;;;5124882;28;20322;-67
2022/10/07 07:08:23;;;;;;;22.30;5.10;;;12.00;99.90;;;;;;5120095;28;20189;-63
2022/10/07 07:10:49;;;;;;;22.52;4.85;;;12.10;99.90;;;;;;5116632;28;20169;-64
2022/10/07 07:13:16;;;;;;;21.25;4.68;;;12.10;99.90;;;;;;5125750;27;20177;-67
2022/10/07 07:15:52;;;;;;;30.17;5.07;;;12.20;99.90;;;;;;5113253;28;20185;-67
2022/10/07 07:18:18;;;;;;;27.45;5.35;;;12.20;99.90;;;;;;5124112;28;20204;-66
2022/10/07 07:20:43;;;;;;;22.35;5.22;;;12.30;99.90;;;;;;5108644;28;20268;-65
2022/10/07 07:23:10;;;;;;;20.63;4.53;;;12.40;99.90;;;;;;5117562;28;20185;-67
2022/10/07 07:25:37;;;;;;;25.65;4.78;;;12.40;99.90;;;;;;5118511;27;20254;-67
2022/10/07 07:28:05;;;;;;;18.85;4.38;;;12.50;99.90;;;;;;5109819;28;20181;-67
2022/10/07 07:30:32;;;;;;;23.90;4.22;;;12.50;99.90;;;;;;5129780;28;20177;-66
2022/10/07 07:33:00;;;;;;;21.42;4.20;;;12.60;99.90;;;;;;5127663;27;20188;-66
2022/10/07 07:35:29;;;;;;;26.70;4.82;;;12.60;99.90;;;;;;5127993;28;20212;-68
2022/10/07 07:37:56;;;;;;;26.65;4.95;;;12.70;99.90;;;;;;5111627;28;20716;-67
2022/10/07 07:40:22;;;;;;;23.42;4.38;;;12.70;99.90;;;;;;5128817;28;20188;-66
2022/10/07 07:42:48;;;;;;;21.63;3.50;;;12.80;99.90;;;;;;5108256;28;20291;-65
2022/10/07 07:45:14;;;;;;;18.38;4.13;;;12.80;99.90;;;;;;5114717;28;20340;-65
2022/10/07 07:47:40;;;;;;;25.88;4.25;;;12.80;99.90;;;;;;5106274;28;20185;-67
2022/10/07 07:50:07;;;;;;;26.33;4.03;;;12.90;99.90;;;;;;5127211;28;20177;-68
2022/10/07 07:52:33;;;;;;;17.83;4.28;;;12.90;99.90;;;;;;5129478;28;20173;-67
2022/10/07 07:55:01;;;;;;;26.02;4.65;;;12.90;99.90;;;;;;5119541;28;20203;-67
2022/10/07 07:57:29;;;;;;;22.75;4.53;;;13.00;99.90;;;;;;5105646;28;20268;-68
2022/10/07 07:59:59;;;;;;;23.08;3.70;;;13.00;99.90;;;;;;5098028;28;20612;-67
2022/10/07 08:02:25;;;;;;;21.10;4.40;;;13.10;99.90;;;;;;5114712;28;20310;-67
2022/10/07 08:04:52;;;;;;;29.35;4.20;;;13.20;99.90;;;;;;5100516;28;20194;-67
2022/10/07 08:07:19;;;;;;;22.65;3.90;;;13.20;99.90;;;;;;5092566;28;21917;-68
2022/10/07 08:09:48;;;;;;;25.70;4.55;;;13.30;99.90;;;;;;5097641;28;20250;-68
2022/10/07 08:12:14;;;;;;;19.00;4.18;;;13.30;99.90;;;;;;5114165;28;20181;-68
2022/10/07 08:14:42;;;;;;;20.95;4.07;;;13.30;99.90;;;;;;5101772;28;20182;-68
2022/10/07 08:17:08;;;;;;;28.63;4.43;;;13.40;99.90;;;;;;5080936;28;20176;-68
2022/10/07 08:19:34;;;;;;;23.52;4.20;;;13.40;99.90;;;;;;5113442;28;20186;-68
2022/10/07 08:22:00;;;;;;;24.77;4.30;;;13.40;99.90;;;;;;5102427;28;20185;-68
2022/10/07 08:24:28;;;;;;;16.50;3.95;;;13.50;99.90;;;;;;5106713;28;20204;-68
2022/10/07 08:26:54;;;;;;;24.55;4.60;;;13.60;99.90;;;;;;5100870;28;20588;-67
2022/10/07 08:29:21;;;;;;;18.85;3.65;;;13.70;99.90;;;;;;5095331;28;20335;-67
2022/10/07 08:31:48;;;;;;;21.40;4.07;;;13.70;99.90;;;;;;5111659;28;20589;-68
2022/10/07 08:34:14;;;;;;;21.45;3.97;;;13.80;99.90;;;;;;5101556;28;20200;-66
2022/10/07 08:36:42;;;;;;;19.25;4.05;;;13.80;99.90;;;;;;5115564;28;20667;-68
2022/10/07 08:39:09;;;;;;;22.63;4.25;;;13.80;99.90;;;;;;5114190;28;20522;-68
2022/10/07 08:41:41;;;;;;;20.45;4.55;;;13.90;99.90;;;;;;5104894;28;20178;-68
2022/10/07 08:44:16;;;;;;;22.52;7.30;;;13.90;99.90;;;;;;5099840;28;20208;-64
2022/10/07 08:47:09;;;;;;;24.67;5.18;;;13.90;99.90;;;;;;5102237;28;20192;-66
2022/10/07 08:49:45;;;;;;;22.83;5.03;;;13.90;99.90;;;;;;5114419;28;20198;-68
2022/10/07 08:52:33;;;;;;;28.23;4.65;;;14.00;99.90;;;;;;5114545;28;20177;-67
2022/10/07 08:55:00;;;;;;;28.40;4.38;;;14.00;99.90;;;;;;5110652;28;20196;-68
2022/10/07 08:57:37;;;;;;;24.00;4.38;;;14.00;99.90;;;;;;5115285;28;20173;-67
2022/10/07 09:00:06;;;;;;;26.55;4.35;;;14.10;99.90;;;;;;5113567;28;20655;-67
2022/10/07 09:02:53;;;;;;;27.13;4.65;;;14.10;99.90;;;;;;5114290;28;20674;-68
2022/10/07 09:05:25;;;;;;;24.83;4.40;;;14.10;99.90;;;;;;5104027;28;20195;-65
2022/10/07 09:07:59;;;;;;;19.25;4.07;;;14.20;99.90;;;;;;5109988;28;20547;-67
2022/10/07 09:10:28;;;;;;;24.55;4.10;;;14.20;99.90;;;;;;5093769;28;20181;-67
2022/10/07 09:13:16;;;;;;;22.65;4.45;;;14.20;99.90;;;;;;5101229;28;20161;-66
2022/10/07 09:16:11;;;;;;;22.65;3.90;;;14.20;99.90;;;;;;5093461;28;20177;-67
2022/10/07 09:18:49;;;;;;;20.58;4.38;;;14.30;99.90;;;;;;5109493;28;20250;-67
2022/10/07 09:21:45;;;;;;;21.42;4.05;;;14.40;99.90;;;;;;5114969;28;20606;-67
2022/10/07 09:24:24;;;;;;;21.35;4.15;;;14.50;99.90;;;;;;5095505;28;20198;-66
2022/10/07 09:26:59;;;;;;;22.15;3.78;;;14.60;99.90;;;;;;5098979;28;20196;-66
2022/10/07 09:29:27;;;;;;;22.55;4.05;;;14.80;99.90;;;;;;5106492;28;20195;-67
2022/10/07 09:31:55;;;;;;;20.45;3.65;;;14.90;99.90;;;;;;5113939;28;20185;-67
2022/10/07 09:34:26;;;;;;;23.40;4.00;;;15.00;99.90;;;;;;5111550;28;20189;-67
2022/10/07 09:37:14;;;;;;;29.20;4.55;;;15.00;99.90;;;;;;5107126;28;20182;-65
2022/10/07 09:39:41;;;;;;;19.58;4.05;;;15.00;99.90;;;;;;5107433;28;20257;-67
2022/10/07 09:42:32;;;;;;;22.45;3.85;;;15.00;99.90;;;;;;5081269;28;20170;-67
2022/10/07 09:45:02;;;;;;;26.15;5.03;;;15.00;99.90;;;;;;5110507;28;20236;-67
2022/10/07 09:47:36;;;;;;;21.45;4.18;;;15.00;99.90;;;;;;5103791;27;20512;-64
2022/10/07 09:50:02;;;;;;;25.88;4.13;;;15.00;99.90;;;;;;5111120;28;20173;-67
2022/10/07 09:52:31;;;;;;;21.55;4.10;;;15.00;99.90;;;;;;5114389;28;20173;-67
2022/10/07 09:55:30;;;;;;;22.58;3.35;;;15.00;99.90;;;;;;5111931;28;20189;-67
2022/10/07 09:58:01;;;;;;;19.30;3.20;;;15.00;99.90;;;;;;5105922;28;20209;-64
2022/10/07 10:00:29;;;;;;;23.58;3.95;;;15.00;99.90;;;;;;5092666;28;20211;-65
2022/10/07 10:03:01;;;;;;;22.73;3.90;;;15.00;99.90;;;;;;5109209;27;20165;-67
2022/10/07 10:05:29;;;;;;;26.42;3.80;;;15.00;99.90;;;;;;5097798;28;20255;-66
2022/10/07 10:08:01;;;;;;;25.42;3.92;;;15.00;99.90;;;;;;5111862;28;20612;-67
2022/10/07 10:10:30;;;;;;;21.48;3.47;;;15.00;99.90;;;;;;5097491;28;20181;-66
2022/10/07 10:12:58;;;;;;;20.92;3.72;;;15.00;99.90;;;;;;5095891;28;22985;-67
2022/10/07 10:15:34;;;;;;;21.88;4.22;;;15.10;99.90;;;;;;5113797;28;20729;-67
2022/10/07 10:18:01;;;;;;;21.77;3.15;;;15.10;99.90;;;;;;5100211;28;20178;-66
2022/10/07 10:20:30;;;;;;;21.13;3.63;;;15.10;99.90;;;;;;5096196;28;20252;-68
2022/10/07 10:22:56;;;;;;;14.50;3.00;;;15.20;99.90;;;;;;5112924;28;20549;-67
2022/10/07 10:29:02;;;;;;;23.40;3.45;;;15.30;99.90;;;;;;5104650;28;20177;-67
2022/10/07 10:31:59;;;;;;;16.77;3.58;;;15.40;99.90;;;;;;5098163;28;20192;-66
2022/10/07 10:34:49;;;;;;;20.38;3.47;;;15.50;99.90;;;;;;5092292;28;20227;-64
2022/10/07 10:37:36;;;;;;;17.25;3.30;;;15.60;99.90;;;;;;5093462;28;20160;-71
2022/10/07 10:40:14;;;;;;;19.35;3.17;;;15.70;99.90;;;;;;5110396;28;20268;-65
2022/10/07 10:42:47;;;;;;;19.13;3.25;;;15.80;99.90;;;;;;5097103;28;22754;-65
2022/10/07 10:45:31;;;;;;;18.23;2.95;;;15.90;99.90;;;;;;5112772;28;20309;-60
2022/10/07 10:48:05;;;;;;;12.68;3.28;;;15.90;99.90;;;;;;5106550;28;20226;-64
2022/10/07 10:51:01;;;;;;;16.83;3.40;;;16.00;99.90;;;;;;5110363;28;20233;-64
2022/10/07 10:53:33;;;;;;;15.73;3.00;;;16.20;99.90;;;;;;5096185;28;20295;-64
2022/10/07 10:56:18;;;;;;;19.50;3.10;;;16.30;99.90;;;;;;5112667;28;20204;-64
2022/10/07 10:59:02;;;;;;;16.13;3.33;;;16.40;99.90;;;;;;5111738;28;20679;-65
2022/10/07 11:01:42;;;;;;;14.52;3.25;;;16.50;99.90;;;;;;5113432;28;20161;-59
2022/10/07 11:04:12;;;;;;;13.85;2.80;;;16.50;99.90;;;;;;5107814;28;20234;-65
2022/10/07 11:06:41;;;;;;;17.40;2.88;;;16.50;99.90;;;;;;5110869;28;20185;-65
2022/10/07 11:09:20;;;;;;;12.68;2.90;;;16.60;99.90;;;;;;5103527;28;20213;-65
2022/10/07 11:11:47;;;;;;;15.73;2.83;;;16.50;99.90;;;;;;5093119;28;20184;-63
2022/10/07 11:14:17;;;;;;;26.67;3.33;;;16.50;99.90;;;;;;5090637;28;20284;-63
2022/10/07 11:16:51;;;;;;;22.23;2.92;;;16.60;99.90;;;;;;5107497;28;20256;-64
2022/10/07 11:19:34;;;;;;;20.67;3.67;;;16.70;99.90;;;;;;5108166;28;20265;-64
2022/10/07 11:22:01;;;;;;;16.98;2.75;;;16.70;99.90;;;;;;5099687;28;20184;-64
2022/10/07 11:24:49;;;;;;;13.27;2.95;;;16.80;99.90;;;;;;5108314;28;20205;-63
2022/10/07 11:27:33;;;;;;;16.17;3.08;;;16.90;99.90;;;;;;5110170;28;20192;-65
2022/10/07 11:30:18;;;;;;;21.52;3.28;;;17.00;99.90;;;;;;5111530;28;20185;-63
2022/10/07 11:33:03;;;;;;;16.88;2.90;;;17.10;99.90;;;;;;5116092;28;20284;-64
2022/10/07 11:35:36;;;;;;;18.38;2.60;;;17.20;99.90;;;;;;5102018;28;20177;-63
2022/10/07 11:38:28;;;;;;;17.00;3.28;;;17.20;99.90;;;;;;5098542;28;20680;-63
2022/10/07 11:41:06;;;;;;;14.07;2.92;;;17.10;99.90;;;;;;5112243;28;20170;-64
2022/10/07 11:43:45;;;;;;;19.85;3.05;;;17.10;99.90;;;;;;5100485;28;20217;-64
2022/10/07 11:46:17;;;;;;;16.95;3.05;;;17.10;99.90;;;;;;5116478;28;20225;-63
2022/10/07 11:49:22;;;;;;;20.55;2.95;;;17.00;99.90;;;;;;5100100;28;20281;-64
2022/10/07 11:52:29;;;;;;;15.88;2.75;;;16.90;99.90;;;;;;5110438;28;20648;-65
2022/10/07 11:55:04;;;;;;;11.93;2.97;;;16.90;99.90;;;;;;5112434;28;20192;-64
2022/10/07 11:57:33;;;;;;;19.63;3.28;;;16.90;99.90;;;;;;5116758;28;20585;-64
2022/10/07 12:00:20;;;;;;;15.68;2.78;;;16.90;99.90;;;;;;5101068;28;20235;-65
2022/10/07 12:02:47;;;;;;;12.02;2.72;;;17.00;99.90;;;;;;5104062;28;20169;-63
2022/10/07 12:05:36;;;;;;;16.65;3.90;;;17.10;99.90;;;;;;5097388;28;20216;-64
2022/10/07 12:08:23;;;;;;;17.55;2.85;;;17.20;99.90;;;;;;5120248;27;20242;-64
2022/10/07 12:10:54;;;;;;;14.48;2.90;;;17.30;99.90;;;;;;5115349;28;20181;-64
2022/10/07 12:13:19;;;;;;;17.00;2.92;;;17.50;99.90;;;;;;5112214;28;20629;-63
2022/10/07 12:15:47;;;;;;;16.95;2.72;;;17.60;99.90;;;;;;5099752;28;20234;-63
2022/10/07 12:18:22;;;;;;;13.57;2.60;;;17.70;99.90;;;;;;5096554;28;20175;-64
2022/10/07 12:20:49;;;;;;;13.63;2.33;;;17.70;99.90;;;;;;5115453;28;20195;-65
2022/10/07 12:23:21;;;;;;;12.85;2.58;;;17.70;99.90;;;;;;5113266;28;20169;-64
2022/10/07 12:25:57;;;;;;;14.88;2.85;;;17.70;99.90;;;;;;5094166;28;20295;-64
2022/10/07 12:28:34;;;;;;;11.25;2.10;;;17.70;99.90;;;;;;5111813;28;20193;-64
2022/10/07 12:31:02;;;;;;;14.57;2.85;;;17.70;99.90;;;;;;5115557;28;20153;-65
2022/10/07 12:33:42;;;;;;;12.90;2.10;;;17.60;99.90;;;;;;5111751;28;20188;-66
2022/10/07 12:36:24;;;;;;;12.93;2.22;;;17.60;99.90;;;;;;5113878;27;20193;-65
2022/10/07 12:38:59;;;;;;;12.70;2.03;;;17.70;99.90;;;;;;5113204;28;20633;-64
2022/10/07 12:41:44;;;;;;;10.43;2.17;;;17.60;99.90;;;;;;5106118;28;20284;-65
2022/10/07 12:44:26;;;;;;;13.15;2.25;;;17.60;99.90;;;;;;5107759;28;20564;-65
2022/10/07 12:46:57;;;;;;;13.27;2.10;;;17.60;99.90;;;;;;5103067;28;20355;-64
2022/10/07 12:49:50;;;;;;;13.88;2.47;;;17.50;99.90;;;;;;5111326;28;20185;-66
2022/10/07 12:52:20;;;;;;;12.25;2.38;;;17.50;99.90;;;;;;5115530;28;20188;-66
2022/10/07 12:54:54;;;;;;;12.10;2.42;;;17.40;99.90;;;;;;5112462;28;20542;-64
2022/10/07 12:57:23;;;;;;;14.05;2.38;;;17.40;99.90;;;;;;5094728;28;20211;-65
2022/10/07 13:00:00;;;;;;;13.77;2.63;;;17.40;99.90;;;;;;5113454;28;20177;-66
2022/10/07 13:02:47;;;;;;;19.92;2.72;;;17.50;99.90;;;;;;5112424;28;20177;-65
2022/10/07 13:05:16;;;;;;;10.10;2.42;;;17.50;99.90;;;;;;5113964;28;20212;-64
2022/10/07 13:08:05;;;;;;;13.05;2.63;;;17.50;99.90;;;;;;5099099;28;20174;-65
2022/10/07 13:11:04;;;;;;;10.98;2.28;;;17.50;99.90;;;;;;5094626;28;20166;-65
2022/10/07 13:13:43;;;;;;;14.07;2.33;;;17.50;99.90;;;;;;5099397;28;20178;-64